Time;durP1;ratioP1;P1;durP2;ratioP2;P2;SDS_P1;SDS_P2;PMS_P1;PMS_P2;Temp;Humidity;BMP_temperature;BMP_pressure;BME280_temperature;BME280_humidity;BME280_pressure;Samples;Min_cycle;Max_cycle;Signal;HPM_P1;HPM_P2
2023/07/14 00:01:18;;;;;;;3.90;2.37;;;18.20;98.00;;;;;;5013141;28;20456;-62
2023/07/14 00:03:45;;;;;;;3.73;2.30;;;18.30;98.00;;;;;;5013169;28;20455;-62
2023/07/14 00:06:14;;;;;;;5.40;2.33;;;18.30;98.00;;;;;;5012982;28;20471;-62
2023/07/14 00:08:42;;;;;;;3.27;2.43;;;18.20;98.00;;;;;;5013203;28;20452;-62
2023/07/14 00:11:13;;;;;;;3.50;2.17;;;18.10;98.00;;;;;;5013113;28;20961;-62
2023/07/14 00:13:40;;;;;;;3.27;2.10;;;18.10;98.00;;;;;;5012926;28;20454;-62
2023/07/14 00:16:13;;;;;;;2.93;2.13;;;18.20;98.00;;;;;;5013308;28;20515;-62
2023/07/14 00:18:40;;;;;;;2.90;2.20;;;18.20;98.00;;;;;;5012880;28;20464;-62
2023/07/14 00:21:14;;;;;;;5.27;2.50;;;18.10;98.00;;;;;;5012692;28;20875;-61
2023/07/14 00:23:44;;;;;;;3.17;2.20;;;18.00;98.00;;;;;;5013019;28;20474;-62
2023/07/14 00:26:16;;;;;;;4.67;2.50;;;18.00;98.00;;;;;;5013063;28;20751;-62
2023/07/14 00:28:43;;;;;;;4.67;2.20;;;18.00;98.00;;;;;;5012442;28;20462;-62
2023/07/14 00:31:14;;;;;;;5.20;2.60;;;17.90;98.00;;;;;;5012227;28;20456;-62
2023/07/14 00:33:42;;;;;;;4.67;2.50;;;17.80;98.00;;;;;;5012423;28;20533;-62
2023/07/14 00:36:09;;;;;;;7.83;2.60;;;17.70;98.00;;;;;;5012466;28;20459;-62
2023/07/14 00:38:36;;;;;;;2.57;2.30;;;17.80;98.00;;;;;;5011189;28;20494;-62
2023/07/14 00:41:15;;;;;;;3.50;2.30;;;17.80;98.00;;;;;;5012551;28;20455;-62
2023/07/14 00:43:43;;;;;;;4.07;2.20;;;17.70;98.00;;;;;;5012559;28;20487;-62
2023/07/14 00:46:22;;;;;;;3.93;2.30;;;17.70;98.00;;;;;;5012250;28;20946;-62
2023/07/14 00:48:50;;;;;;;3.03;2.10;;;17.80;98.00;;;;;;5012256;28;20467;-62
2023/07/14 00:51:19;;;;;;;5.07;2.27;;;17.70;98.00;;;;;;5010989;28;20463;-62
2023/07/14 00:53:46;;;;;;;3.40;2.57;;;17.60;98.00;;;;;;5012038;28;20490;-62
2023/07/14 00:56:33;;;;;;;3.90;2.57;;;17.60;98.00;;;;;;5010891;28;20458;-62
2023/07/14 00:59:00;;;;;;;3.07;2.37;;;17.50;98.00;;;;;;5012289;28;20455;-62
2023/07/14 01:01:31;;;;;;;4.00;2.13;;;17.40;98.00;;;;;;5012008;28;20471;-62
2023/07/14 01:03:59;;;;;;;3.57;2.30;;;17.30;98.00;;;;;;5011185;28;20466;-62
2023/07/14 01:06:29;;;;;;;3.43;2.20;;;17.40;98.00;;;;;;5011976;28;20452;-62
2023/07/14 01:09:00;;;;;;;5.43;2.70;;;17.40;98.00;;;;;;5012084;28;20455;-62
2023/07/14 01:11:34;;;;;;;2.63;2.23;;;17.40;98.00;;;;;;5011703;28;20471;-62
2023/07/14 01:14:05;;;;;;;6.30;2.00;;;17.40;98.00;;;;;;5012275;28;20469;-62
2023/07/14 01:16:35;;;;;;;7.00;2.33;;;17.30;98.00;;;;;;5012131;28;20874;-62
2023/07/14 01:19:04;;;;;;;3.10;2.30;;;17.20;98.00;;;;;;5011989;28;20529;-62
2023/07/14 01:21:32;;;;;;;3.67;2.43;;;17.20;98.00;;;;;;5011803;28;20503;-62
2023/07/14 01:24:06;;;;;;;4.13;2.47;;;17.20;98.00;;;;;;5011742;28;20459;-62
2023/07/14 01:26:51;;;;;;;5.17;2.37;;;17.00;98.00;;;;;;5010765;28;20464;-62
2023/07/14 01:29:19;;;;;;;4.77;2.30;;;16.90;98.00;;;;;;5011802;28;20525;-62
2023/07/14 01:31:47;;;;;;;4.67;2.57;;;16.80;98.00;;;;;;5010509;28;20471;-62
2023/07/14 01:34:14;;;;;;;4.07;2.30;;;16.90;98.00;;;;;;5011770;28;20470;-62
2023/07/14 01:36:42;;;;;;;2.47;2.00;;;17.00;98.00;;;;;;5011453;28;20463;-62
2023/07/14 01:39:10;;;;;;;3.70;2.37;;;17.10;98.00;;;;;;5011669;28;20459;-62
2023/07/14 01:41:37;;;;;;;3.70;2.60;;;17.10;98.00;;;;;;5011342;28;20535;-62
2023/07/14 01:44:09;;;;;;;4.33;2.30;;;17.00;98.00;;;;;;5011632;28;20464;-62
2023/07/14 01:46:36;;;;;;;3.73;2.60;;;16.90;98.00;;;;;;5011486;28;20504;-62
2023/07/14 01:49:20;;;;;;;3.20;2.20;;;16.90;98.00;;;;;;5010251;28;20452;-61
2023/07/14 01:51:49;;;;;;;3.67;2.43;;;16.90;98.00;;;;;;5011425;28;20833;-62
2023/07/14 01:54:28;;;;;;;4.23;2.50;;;16.70;98.00;;;;;;5011473;28;20484;-62
2023/07/14 01:56:58;;;;;;;4.10;2.57;;;16.60;98.00;;;;;;5011720;28;20458;-62
2023/07/14 01:59:32;;;;;;;3.30;2.40;;;16.60;98.00;;;;;;5011327;28;20621;-62
2023/07/14 02:02:01;;;;;;;4.43;2.63;;;16.50;98.00;;;;;;5011762;28;20459;-62
2023/07/14 02:04:30;;;;;;;3.67;2.50;;;16.40;98.00;;;;;;5010121;28;20509;-62
2023/07/14 02:07:01;;;;;;;4.10;2.37;;;16.50;98.00;;;;;;5011554;28;20910;-62
2023/07/14 02:09:30;;;;;;;3.27;2.27;;;16.60;98.00;;;;;;5011656;28;20469;-62
2023/07/14 02:12:01;;;;;;;6.13;2.60;;;16.60;98.00;;;;;;5011643;28;20888;-62
2023/07/14 02:14:35;;;;;;;5.60;2.33;;;16.50;98.00;;;;;;5011526;28;20829;-62
2023/07/14 02:17:07;;;;;;;6.00;2.50;;;16.60;98.00;;;;;;5011602;28;20849;-62
2023/07/14 02:19:34;;;;;;;3.43;2.40;;;16.70;98.00;;;;;;5011156;28;20459;-62
2023/07/14 02:22:02;;;;;;;3.00;2.10;;;16.60;98.00;;;;;;5011250;28;20467;-62
2023/07/14 02:24:31;;;;;;;5.20;2.43;;;16.70;98.00;;;;;;5011083;28;20989;-62
2023/07/14 02:27:02;;;;;;;4.90;2.60;;;16.50;98.00;;;;;;5009832;28;20994;-62
2023/07/14 02:29:31;;;;;;;3.53;2.47;;;16.40;98.00;;;;;;5011054;28;20456;-62
2023/07/14 02:32:03;;;;;;;3.57;2.23;;;16.30;98.00;;;;;;5011074;28;20521;-62
2023/07/14 02:34:36;;;;;;;3.80;2.63;;;16.30;98.00;;;;;;5010978;28;20468;-62
2023/07/14 02:37:05;;;;;;;5.37;2.83;;;16.20;98.00;;;;;;5010981;28;20490;-62
2023/07/14 02:39:36;;;;;;;4.20;2.70;;;16.10;98.00;;;;;;5010878;28;20487;-61
2023/07/14 02:42:05;;;;;;;3.60;2.40;;;16.00;98.00;;;;;;5010115;28;20451;-62
2023/07/14 02:44:37;;;;;;;3.80;2.50;;;16.00;98.00;;;;;;5010813;28;20460;-62
2023/07/14 02:47:10;;;;;;;4.50;3.00;;;16.10;98.00;;;;;;5010936;28;20463;-62
2023/07/14 02:49:37;;;;;;;4.83;2.40;;;16.10;98.00;;;;;;5009677;28;20509;-62
2023/07/14 02:52:05;;;;;;;5.27;2.87;;;16.20;98.00;;;;;;5010982;28;20460;-62
2023/07/14 02:54:32;;;;;;;5.63;3.03;;;16.20;98.00;;;;;;5014168;28;20463;-61
2023/07/14 02:57:00;;;;;;;3.80;2.40;;;16.00;98.00;;;;;;5014330;28;20459;-61
2023/07/14 02:59:27;;;;;;;6.50;3.97;;;16.10;98.00;;;;;;5013140;28;20455;-62
2023/07/14 03:01:55;;;;;;;5.57;3.40;;;16.00;98.00;;;;;;5014507;28;20522;-62
2023/07/14 03:04:23;;;;;;;4.40;2.80;;;15.90;98.00;;;;;;5014403;28;20464;-62
2023/07/14 03:06:51;;;;;;;5.10;2.67;;;15.80;98.00;;;;;;5014131;28;20502;-62
2023/07/14 03:09:19;;;;;;;3.00;2.33;;;15.70;98.00;;;;;;5013195;28;20491;-62
2023/07/14 03:11:46;;;;;;;4.43;2.77;;;15.60;98.00;;;;;;5014264;28;20482;-62
2023/07/14 03:14:16;;;;;;;4.27;2.77;;;15.80;98.00;;;;;;5014068;28;20487;-62
2023/07/14 03:16:43;;;;;;;6.40;2.70;;;16.00;98.00;;;;;;5014155;28;20447;-62
2023/07/14 03:19:12;;;;;;;3.90;2.63;;;15.90;98.00;;;;;;5014069;28;20769;-62
2023/07/14 03:21:39;;;;;;;4.57;2.60;;;15.80;98.00;;;;;;5013965;28;20529;-62
2023/07/14 03:24:06;;;;;;;4.00;2.50;;;15.80;98.00;;;;;;5013943;28;20459;-62
2023/07/14 03:26:33;;;;;;;4.70;2.30;;;15.70;98.00;;;;;;5013672;28;20492;-62
2023/07/14 03:29:00;;;;;;;4.27;2.93;;;15.80;98.00;;;;;;5013755;28;20525;-62
2023/07/14 03:31:29;;;;;;;4.53;2.77;;;15.70;98.00;;;;;;5013475;28;20455;-62
2023/07/14 03:33:57;;;;;;;2.90;2.33;;;15.60;98.00;;;;;;5012476;28;20574;-62
2023/07/14 03:36:26;;;;;;;4.83;2.60;;;15.50;98.00;;;;;;5013628;28;20451;-61
2023/07/14 03:39:21;;;;;;;4.70;2.80;;;15.50;98.00;;;;;;5013907;28;20680;-62
2023/07/14 03:41:48;;;;;;;5.10;2.80;;;15.60;98.00;;;;;;5012373;28;20455;-62
2023/07/14 03:44:16;;;;;;;9.83;3.17;;;15.80;98.00;;;;;;5013565;28;20451;-62
2023/07/14 03:46:43;;;;;;;9.60;2.70;;;15.90;98.00;;;;;;5012440;28;20460;-62
2023/07/14 03:49:10;;;;;;;3.07;2.40;;;15.90;98.00;;;;;;5013904;28;20543;-62
2023/07/14 03:51:38;;;;;;;6.80;2.40;;;15.90;98.00;;;;;;5013689;28;20464;-62
2023/07/14 03:54:05;;;;;;;2.83;2.50;;;15.90;98.00;;;;;;5013495;28;20490;-62
2023/07/14 03:56:32;;;;;;;2.93;2.23;;;16.00;98.00;;;;;;5012091;28;20454;-62
2023/07/14 03:58:59;;;;;;;5.60;2.40;;;16.10;98.00;;;;;;5013635;28;20451;-62
2023/07/14 04:01:26;;;;;;;3.10;2.33;;;16.10;98.00;;;;;;5013260;28;20456;-62
2023/07/14 04:03:53;;;;;;;3.67;2.60;;;15.90;98.00;;;;;;5012530;28;20546;-62
2023/07/14 04:06:21;;;;;;;3.87;2.63;;;15.80;98.00;;;;;;5012531;28;20451;-62
2023/07/14 04:08:52;;;;;;;8.93;2.93;;;15.80;98.00;;;;;;5011856;28;20460;-62
2023/07/14 04:11:20;;;;;;;5.57;3.13;;;15.80;98.00;;;;;;5013078;28;20543;-62
2023/07/14 04:13:47;;;;;;;3.63;2.57;;;15.80;98.00;;;;;;5012850;28;20891;-62
2023/07/14 04:16:14;;;;;;;5.77;2.77;;;15.80;98.00;;;;;;5012797;28;20518;-62
2023/07/14 04:18:42;;;;;;;3.97;2.63;;;15.90;98.00;;;;;;5012977;28;20460;-61
2023/07/14 04:21:12;;;;;;;3.60;2.47;;;16.10;98.00;;;;;;5012678;28;20606;-62
2023/07/14 04:23:40;;;;;;;4.37;2.57;;;16.10;98.00;;;;;;5012997;28;20463;-62
2023/07/14 04:26:11;;;;;;;4.60;2.90;;;16.20;98.00;;;;;;5012675;28;20483;-62
2023/07/14 04:28:39;;;;;;;4.20;2.37;;;16.30;98.00;;;;;;5012537;28;20542;-62
2023/07/14 04:31:06;;;;;;;5.10;2.83;;;16.30;98.00;;;;;;5012925;28;20954;-62
2023/07/14 04:33:33;;;;;;;4.60;2.50;;;16.50;98.00;;;;;;5012533;28;20479;-62
2023/07/14 04:36:00;;;;;;;5.00;2.90;;;16.50;98.00;;;;;;5012471;28;20514;-62
2023/07/14 04:38:29;;;;;;;4.13;2.77;;;16.60;98.00;;;;;;5012460;28;20459;-62
2023/07/14 04:40:56;;;;;;;4.47;2.50;;;16.60;98.00;;;;;;5012582;28;20551;-62
2023/07/14 04:43:25;;;;;;;5.40;3.10;;;16.70;98.00;;;;;;5012305;28;20954;-62
2023/07/14 04:45:52;;;;;;;3.80;2.87;;;16.90;98.00;;;;;;5012313;28;20530;-62
2023/07/14 04:48:22;;;;;;;4.60;2.70;;;17.00;98.00;;;;;;5012541;28;20881;-62
2023/07/14 04:50:51;;;;;;;5.43;2.90;;;17.10;98.00;;;;;;5012499;28;20946;-62
2023/07/14 04:53:19;;;;;;;6.27;3.27;;;17.10;98.00;;;;;;5012537;28;21053;-62
2023/07/14 04:55:48;;;;;;;4.03;2.50;;;17.20;98.00;;;;;;5011098;28;20456;-62
2023/07/14 04:58:17;;;;;;;5.40;3.30;;;17.20;98.00;;;;;;5012302;28;20542;-62
2023/07/14 05:00:48;;;;;;;6.80;2.93;;;17.10;98.00;;;;;;5012029;28;20825;-62
2023/07/14 05:03:15;;;;;;;3.40;2.53;;;17.20;98.00;;;;;;5012199;28;20444;-62
2023/07/14 05:05:42;;;;;;;3.67;2.73;;;17.20;98.00;;;;;;5011952;28;20981;-62
2023/07/14 05:08:09;;;;;;;4.53;2.80;;;17.20;98.00;;;;;;5011966;28;20496;-62
2023/07/14 05:10:38;;;;;;;5.80;3.03;;;17.20;98.00;;;;;;5011962;28;20463;-62
2023/07/14 05:13:06;;;;;;;4.33;2.90;;;17.40;98.00;;;;;;5011995;28;20497;-62
2023/07/14 05:15:33;;;;;;;3.60;2.80;;;17.40;98.00;;;;;;5011565;28;20513;-62
2023/07/14 05:18:02;;;;;;;4.00;2.80;;;17.40;98.00;;;;;;5010478;28;20458;-62
2023/07/14 05:20:29;;;;;;;4.83;3.00;;;17.50;98.00;;;;;;5011759;28;20518;-62
2023/07/14 05:22:56;;;;;;;4.20;3.00;;;17.40;98.00;;;;;;5011753;28;20547;-62
2023/07/14 05:25:24;;;;;;;5.07;3.20;;;17.50;98.00;;;;;;5011618;28;20513;-62
2023/07/14 05:27:51;;;;;;;4.60;3.00;;;17.50;98.00;;;;;;5011631;28;20535;-62
2023/07/14 05:30:25;;;;;;;5.93;3.30;;;17.50;98.00;;;;;;5011585;28;20463;-62
2023/07/14 05:32:52;;;;;;;6.27;2.80;;;17.40;98.00;;;;;;5011513;28;20475;-64
2023/07/14 05:35:25;;;;;;;5.20;3.43;;;17.40;98.00;;;;;;5011573;28;20895;-62
2023/07/14 05:37:53;;;;;;;4.27;2.90;;;17.30;98.00;;;;;;5011604;28;20969;-62
2023/07/14 05:40:21;;;;;;;6.50;3.30;;;17.40;98.00;;;;;;5011446;28;20451;-62
2023/07/14 05:42:48;;;;;;;4.93;3.00;;;17.40;98.00;;;;;;5011473;28;20478;-62
2023/07/14 05:45:15;;;;;;;4.03;3.07;;;17.30;98.00;;;;;;5011692;28;20460;-62
2023/07/14 05:47:46;;;;;;;7.27;3.10;;;17.30;98.00;;;;;;5011873;28;20459;-62
2023/07/14 05:50:14;;;;;;;5.53;3.17;;;17.30;98.00;;;;;;5010546;28;20451;-62
2023/07/14 05:52:45;;;;;;;4.77;3.20;;;17.40;98.00;;;;;;5011798;28;20460;-62
2023/07/14 05:55:13;;;;;;;3.80;2.80;;;17.60;98.00;;;;;;5011275;28;20491;-62
2023/07/14 05:57:40;;;;;;;4.87;2.90;;;17.70;98.00;;;;;;5011237;28;20844;-62
2023/07/14 06:00:13;;;;;;;4.00;2.83;;;18.00;98.00;;;;;;5011267;28;20456;-62
2023/07/14 06:02:41;;;;;;;6.27;3.20;;;18.20;98.00;;;;;;5010270;28;20866;-62
2023/07/14 06:05:09;;;;;;;5.07;3.27;;;18.40;98.00;;;;;;5011471;28;20996;-62
2023/07/14 06:07:36;;;;;;;3.60;2.77;;;18.40;98.00;;;;;;5010151;28;20459;-62
2023/07/14 06:10:08;;;;;;;5.50;3.00;;;18.50;98.00;;;;;;5011241;28;20455;-62
2023/07/14 06:12:35;;;;;;;4.30;2.93;;;18.60;98.00;;;;;;5011122;28;20505;-62
2023/07/14 06:15:03;;;;;;;8.23;3.00;;;18.60;98.00;;;;;;5011043;28;20487;-62
2023/07/14 06:17:30;;;;;;;7.03;3.27;;;18.70;98.00;;;;;;5010610;28;20467;-62
2023/07/14 06:19:57;;;;;;;5.37;3.10;;;18.80;98.00;;;;;;5011098;28;20460;-62
2023/07/14 06:22:24;;;;;;;5.53;2.87;;;18.80;98.00;;;;;;5010889;28;20451;-62
2023/07/14 06:24:51;;;;;;;6.90;3.43;;;19.00;98.00;;;;;;5010977;28;20447;-62
2023/07/14 06:27:23;;;;;;;4.97;3.40;;;19.10;98.00;;;;;;5010940;28;20451;-62
2023/07/14 06:29:50;;;;;;;7.17;3.40;;;19.10;98.00;;;;;;5014787;28;20542;-62
2023/07/14 06:32:18;;;;;;;5.00;3.53;;;18.90;98.00;;;;;;5014708;28;20961;-62
2023/07/14 06:34:46;;;;;;;6.80;3.47;;;18.90;98.00;;;;;;5013460;28;20483;-62
2023/07/14 06:37:13;;;;;;;7.17;3.37;;;18.90;98.00;;;;;;5014661;28;20451;-62
2023/07/14 06:39:40;;;;;;;5.60;2.83;;;18.90;98.00;;;;;;5014966;28;20459;-62
2023/07/14 06:42:09;;;;;;;4.70;3.10;;;18.80;98.00;;;;;;5014964;28;20452;-62
2023/07/14 06:44:37;;;;;;;10.20;3.87;;;18.90;98.00;;;;;;5014629;28;20456;-62
2023/07/14 06:47:05;;;;;;;4.90;3.13;;;19.00;98.00;;;;;;5014456;28;20846;-62
2023/07/14 06:49:34;;;;;;;5.30;3.40;;;19.10;98.00;;;;;;5014383;28;20478;-62
2023/07/14 06:52:03;;;;;;;7.43;3.73;;;19.20;98.00;;;;;;5014363;28;20465;-62
2023/07/14 06:54:30;;;;;;;4.53;2.80;;;19.40;98.00;;;;;;5014217;28;20563;-62
2023/07/14 06:56:57;;;;;;;6.27;3.13;;;19.50;98.00;;;;;;5014591;28;20459;-62
2023/07/14 06:59:25;;;;;;;5.40;3.00;;;19.70;98.00;;;;;;5014323;28;20483;-62
2023/07/14 07:01:53;;;;;;;5.27;3.10;;;19.90;98.00;;;;;;5014122;28;20800;-62
2023/07/14 07:04:21;;;;;;;6.53;3.40;;;20.10;98.00;;;;;;5014180;28;20459;-62
2023/07/14 07:06:48;;;;;;;5.77;3.20;;;20.10;98.00;;;;;;5014161;28;20813;-62
2023/07/14 07:09:15;;;;;;;6.90;3.60;;;20.10;98.00;;;;;;5014067;28;20463;-62
2023/07/14 07:11:43;;;;;;;5.33;3.43;;;20.20;98.00;;;;;;5014069;28;20451;-62
2023/07/14 07:14:10;;;;;;;5.63;3.50;;;20.20;98.00;;;;;;5012781;28;20488;-62
2023/07/14 07:16:37;;;;;;;4.23;2.93;;;20.20;98.00;;;;;;5012725;28;20475;-62
2023/07/14 07:19:05;;;;;;;7.60;3.40;;;20.20;98.00;;;;;;5013904;28;20498;-62
2023/07/14 07:21:32;;;;;;;4.13;2.77;;;20.30;98.00;;;;;;5012572;28;20452;-62
2023/07/14 07:24:00;;;;;;;6.30;3.60;;;20.40;98.00;;;;;;5013913;28;20463;-62
2023/07/14 07:26:27;;;;;;;6.50;3.60;;;20.60;98.00;;;;;;5012618;28;20451;-62
2023/07/14 07:28:54;;;;;;;5.33;3.07;;;20.70;98.00;;;;;;5013692;28;20742;-62
2023/07/14 07:31:21;;;;;;;6.10;3.50;;;20.90;98.00;;;;;;5013674;28;20953;-62
2023/07/14 07:33:48;;;;;;;5.30;3.33;;;21.10;98.00;;;;;;5013994;28;20829;-63
2023/07/14 07:36:17;;;;;;;5.43;3.17;;;21.40;98.00;;;;;;5012684;28;20861;-62
2023/07/14 07:38:46;;;;;;;6.17;3.60;;;21.60;98.00;;;;;;5012172;28;20464;-62
2023/07/14 07:41:14;;;;;;;5.57;3.20;;;21.80;98.00;;;;;;5013525;28;20566;-62
2023/07/14 07:43:41;;;;;;;5.57;3.13;;;21.90;98.00;;;;;;5012616;28;20530;-62
2023/07/14 07:46:16;;;;;;;12.30;3.20;;;22.10;98.00;;;;;;5013596;28;20459;-62
2023/07/14 07:48:44;;;;;;;8.10;3.10;;;22.20;98.00;;;;;;5013452;28;20466;-62
2023/07/14 07:51:12;;;;;;;7.93;3.23;;;22.40;98.00;;;;;;5013216;28;20460;-63
2023/07/14 07:53:41;;;;;;;4.00;2.90;;;22.60;98.00;;;;;;5013151;28;20459;-62
2023/07/14 07:56:09;;;;;;;5.37;2.77;;;22.70;98.00;;;;;;5013479;28;20455;-62
2023/07/14 07:58:37;;;;;;;5.13;2.73;;;22.90;98.00;;;;;;5013073;28;20501;-62
2023/07/14 08:01:05;;;;;;;3.83;2.70;;;23.00;98.00;;;;;;5011948;28;20456;-62
2023/07/14 08:03:34;;;;;;;3.40;2.80;;;23.10;97.50;;;;;;5013013;28;20451;-62
2023/07/14 08:06:03;;;;;;;5.03;2.80;;;23.20;96.50;;;;;;5013026;28;20559;-63
2023/07/14 08:08:30;;;;;;;4.00;2.63;;;23.40;94.50;;;;;;5013207;28;20468;-63
2023/07/14 08:11:00;;;;;;;4.67;2.50;;;23.60;96.00;;;;;;5013259;28;20502;-62
2023/07/14 08:13:28;;;;;;;4.40;2.50;;;23.80;90.40;;;;;;5011621;28;20455;-63
2023/07/14 08:15:56;;;;;;;2.80;2.40;;;24.00;91.80;;;;;;5012833;28;20861;-63
2023/07/14 08:18:24;;;;;;;3.57;2.40;;;24.20;89.60;;;;;;5012765;28;20513;-63
2023/07/14 08:20:52;;;;;;;4.20;2.33;;;24.40;87.30;;;;;;5012821;28;20860;-62
2023/07/14 08:23:21;;;;;;;3.37;2.30;;;24.50;86.50;;;;;;5011536;28;20982;-63
2023/07/14 08:25:53;;;;;;;3.10;2.30;;;24.60;86.10;;;;;;5012842;28;20460;-63
2023/07/14 08:28:22;;;;;;;2.80;2.13;;;24.80;86.20;;;;;;5011733;28;20484;-63
2023/07/14 08:30:50;;;;;;;2.77;2.17;;;24.90;87.90;;;;;;5012798;28;20547;-63
2023/07/14 08:33:18;;;;;;;3.83;2.53;;;25.20;85.50;;;;;;5012524;28;20464;-63
2023/07/14 08:35:45;;;;;;;3.23;2.30;;;25.40;82.90;;;;;;5012369;28;20491;-63
2023/07/14 08:38:12;;;;;;;2.83;2.47;;;25.50;84.10;;;;;;5012687;28;20455;-63
2023/07/14 08:40:46;;;;;;;3.37;2.43;;;25.60;82.10;;;;;;5011220;28;20467;-63
2023/07/14 08:43:26;;;;;;;5.70;2.60;;;25.70;82.80;;;;;;5012491;28;20464;-63
2023/07/14 08:45:57;;;;;;;3.20;2.33;;;25.80;82.00;;;;;;5012337;28;20554;-63
2023/07/14 08:48:37;;;;;;;5.07;2.43;;;26.00;83.00;;;;;;5012328;28;20989;-63
2023/07/14 08:51:16;;;;;;;4.53;2.70;;;26.10;81.30;;;;;;5011697;28;20458;-64
2023/07/14 08:53:50;;;;;;;3.97;2.23;;;26.20;81.80;;;;;;5012509;28;20868;-63
2023/07/14 08:56:20;;;;;;;4.87;2.50;;;26.30;82.60;;;;;;5011998;28;20519;-63
2023/07/14 08:58:51;;;;;;;2.90;2.13;;;26.40;81.80;;;;;;5012237;28;20467;-63
2023/07/14 09:01:28;;;;;;;4.57;2.40;;;26.60;81.80;;;;;;5012112;28;20467;-62
2023/07/14 09:04:01;;;;;;;3.10;2.40;;;26.70;80.40;;;;;;5010957;28;20973;-63
2023/07/14 09:06:32;;;;;;;4.90;2.30;;;26.90;80.80;;;;;;5012093;28;20811;-63
2023/07/14 09:09:00;;;;;;;3.20;2.40;;;26.90;79.40;;;;;;5011944;28;20456;-63
2023/07/14 09:11:42;;;;;;;3.93;2.40;;;27.00;78.80;;;;;;5012154;28;20849;-63
2023/07/14 09:14:31;;;;;;;3.13;2.30;;;26.90;79.50;;;;;;5011958;28;20455;-63
2023/07/14 09:17:26;;;;;;;4.50;2.40;;;27.00;78.90;;;;;;5011926;28;20460;-64
2023/07/14 09:20:30;;;;;;;3.37;2.50;;;27.20;77.80;;;;;;5011759;28;20498;-63
2023/07/14 09:23:09;;;;;;;5.83;2.50;;;27.30;78.10;;;;;;5006114;28;20460;-63
2023/07/14 09:25:44;;;;;;;3.83;2.83;;;27.60;78.00;;;;;;5010546;28;20463;-63
2023/07/14 09:28:15;;;;;;;3.10;2.30;;;27.60;77.90;;;;;;5011836;28;20465;-62
2023/07/14 09:30:45;;;;;;;3.87;2.50;;;27.70;76.60;;;;;;5011869;28;20525;-63
2023/07/14 09:33:17;;;;;;;7.30;2.93;;;27.70;77.80;;;;;;5011721;28;20902;-63
2023/07/14 09:35:46;;;;;;;4.77;2.83;;;27.60;76.40;;;;;;5011586;28;20490;-63
2023/07/14 09:38:21;;;;;;;3.23;2.40;;;27.60;77.80;;;;;;5011498;28;20511;-63
2023/07/14 09:40:51;;;;;;;3.50;2.60;;;27.60;77.00;;;;;;5011611;28;20454;-63
2023/07/14 09:43:18;;;;;;;3.00;2.57;;;27.60;78.20;;;;;;5011790;28;20498;-63
2023/07/14 09:45:46;;;;;;;4.27;2.77;;;27.70;77.00;;;;;;5011522;28;20835;-63
2023/07/14 09:48:18;;;;;;;4.10;2.30;;;27.70;77.40;;;;;;5011325;28;21012;-63
2023/07/14 09:50:56;;;;;;;3.60;2.60;;;27.80;77.40;;;;;;5011638;28;20458;-63
2023/07/14 09:53:23;;;;;;;4.03;2.77;;;27.90;75.90;;;;;;5010316;28;20513;-63
2023/07/14 09:55:53;;;;;;;4.47;2.80;;;27.90;76.00;;;;;;5011440;28;20511;-63
2023/07/14 09:58:23;;;;;;;3.00;2.47;;;28.00;75.90;;;;;;5011716;28;20546;-63
2023/07/14 10:00:55;;;;;;;3.70;2.40;;;28.10;75.40;;;;;;5010065;28;20464;-63
2023/07/14 10:03:28;;;;;;;3.40;2.40;;;28.20;75.40;;;;;;5014870;28;20517;-63
2023/07/14 10:05:57;;;;;;;3.77;2.60;;;28.10;75.40;;;;;;5015412;28;20535;-63
2023/07/14 10:08:29;;;;;;;3.13;2.70;;;28.00;74.20;;;;;;5015095;28;20517;-63
2023/07/14 10:10:58;;;;;;;3.20;2.40;;;27.70;74.30;;;;;;5014197;28;20521;-63
2023/07/14 10:13:28;;;;;;;3.73;2.60;;;27.70;75.80;;;;;;5015103;28;21020;-63
2023/07/14 10:16:03;;;;;;;3.53;2.60;;;27.80;77.50;;;;;;5015480;28;20578;-63
2023/07/14 10:18:30;;;;;;;3.83;2.60;;;27.80;75.90;;;;;;5015432;28;20502;-63
2023/07/14 10:21:06;;;;;;;3.40;2.40;;;27.80;75.40;;;;;;5015223;28;20974;-63
2023/07/14 10:23:33;;;;;;;8.13;3.00;;;27.80;75.40;;;;;;5014968;28;20552;-63
2023/07/14 10:26:02;;;;;;;7.80;2.77;;;27.80;74.00;;;;;;5013861;28;20467;-63
2023/07/14 10:28:30;;;;;;;5.43;2.70;;;27.70;75.40;;;;;;5013728;28;20830;-64
2023/07/14 10:31:06;;;;;;;6.83;2.60;;;27.70;75.10;;;;;;5014921;28;20462;-63
2023/07/14 10:33:43;;;;;;;3.10;2.40;;;27.70;74.90;;;;;;5014991;28;20478;-63
2023/07/14 10:36:15;;;;;;;2.60;2.30;;;27.80;76.00;;;;;;5014726;28;20491;-63
2023/07/14 10:38:45;;;;;;;3.33;2.60;;;27.90;76.40;;;;;;5014870;28;20463;-63
2023/07/14 10:41:13;;;;;;;3.07;2.30;;;27.90;76.10;;;;;;5015117;28;20459;-63
2023/07/14 10:43:45;;;;;;;8.63;2.43;;;28.00;76.20;;;;;;5014580;28;20458;-63
2023/07/14 10:46:18;;;;;;;3.50;2.60;;;27.90;76.50;;;;;;5014727;28;20455;-64
2023/07/14 10:48:49;;;;;;;5.00;2.80;;;27.90;74.90;;;;;;5014563;28;20462;-63
2023/07/14 10:51:28;;;;;;;3.40;2.53;;;28.00;76.20;;;;;;5014582;28;20946;-63
2023/07/14 10:54:03;;;;;;;3.07;2.50;;;28.10;74.50;;;;;;5014648;28;20459;-63
2023/07/14 10:56:36;;;;;;;3.53;2.50;;;28.10;73.50;;;;;;5014403;28;20528;-63
2023/07/14 10:59:12;;;;;;;2.80;2.30;;;28.10;74.70;;;;;;5014483;28;20463;-63
2023/07/14 11:01:46;;;;;;;5.43;2.63;;;28.10;75.40;;;;;;5014409;28;20485;-63
2023/07/14 11:04:24;;;;;;;3.97;2.57;;;28.20;76.30;;;;;;5014522;28;20466;-62
2023/07/14 11:06:54;;;;;;;3.33;2.50;;;28.40;75.00;;;;;;5014317;28;20459;-63
2023/07/14 11:09:21;;;;;;;3.77;2.83;;;28.50;74.00;;;;;;5014548;28;20455;-62
2023/07/14 11:11:59;;;;;;;3.40;2.50;;;28.40;72.90;;;;;;5013160;28;20459;-62
2023/07/14 11:14:35;;;;;;;4.13;2.50;;;28.40;73.20;;;;;;5012272;28;20459;-62
2023/07/14 11:17:15;;;;;;;5.90;3.00;;;28.40;74.40;;;;;;5014241;28;20487;-63
2023/07/14 11:20:03;;;;;;;2.80;2.40;;;28.50;74.70;;;;;;5014022;28;20459;-64
2023/07/14 11:22:56;;;;;;;2.97;2.40;;;28.40;73.10;;;;;;5014009;28;20996;-63
2023/07/14 11:25:31;;;;;;;2.80;2.50;;;28.40;75.30;;;;;;5011310;28;20468;-62
2023/07/14 11:28:03;;;;;;;3.40;2.40;;;28.40;74.10;;;;;;5013891;28;20465;-62
2023/07/14 11:30:35;;;;;;;3.47;2.40;;;28.40;74.50;;;;;;5013754;28;20467;-63
2023/07/14 11:33:15;;;;;;;3.30;2.60;;;28.40;74.00;;;;;;5013778;28;20463;-63
2023/07/14 11:35:54;;;;;;;7.07;2.80;;;28.40;73.20;;;;;;5013195;28;20487;-63
2023/07/14 11:38:33;;;;;;;5.70;2.53;;;28.50;75.10;;;;;;5012484;28;20558;-63
2023/07/14 11:41:01;;;;;;;4.43;2.60;;;28.50;73.40;;;;;;5012564;28;20908;-63
2023/07/14 11:43:30;;;;;;;4.57;2.60;;;28.40;72.70;;;;;;4995929;28;20474;-63
2023/07/14 11:46:00;;;;;;;4.63;2.70;;;28.50;74.20;;;;;;5013567;28;21113;-63
2023/07/14 11:48:37;;;;;;;3.30;2.50;;;28.50;73.50;;;;;;5013391;28;20514;-63
2023/07/14 11:51:13;;;;;;;4.00;2.43;;;28.60;72.60;;;;;;5013444;28;20482;-63
2023/07/14 11:53:43;;;;;;;3.50;2.47;;;28.80;73.20;;;;;;5013314;28;20558;-63
2023/07/14 11:56:24;;;;;;;3.73;2.60;;;29.10;72.30;;;;;;5013242;28;20483;-63
2023/07/14 11:59:05;;;;;;;3.73;2.57;;;29.40;74.30;;;;;;5013475;28;20464;-63
2023/07/14 12:01:34;;;;;;;4.40;2.53;;;29.50;72.40;;;;;;5013198;28;20494;-63
2023/07/14 12:04:22;;;;;;;4.73;2.50;;;29.50;72.40;;;;;;5013480;28;20946;-64
2023/07/14 12:06:50;;;;;;;4.50;3.13;;;29.50;70.30;;;;;;5013397;28;20550;-63
2023/07/14 12:09:19;;;;;;;3.83;2.70;;;29.50;70.20;;;;;;5013407;28;20456;-63
2023/07/14 12:11:53;;;;;;;3.30;2.73;;;29.40;71.00;;;;;;5013096;28;20814;-63
2023/07/14 12:14:44;;;;;;;4.00;2.80;;;29.40;72.30;;;;;;5013272;28;20953;-63
2023/07/14 12:17:44;;;;;;;3.73;2.50;;;29.50;72.10;;;;;;5012907;28;20491;-64
2023/07/14 12:20:29;;;;;;;4.00;2.60;;;30.00;72.40;;;;;;5012956;28;20953;-63
2023/07/14 12:23:08;;;;;;;4.17;2.90;;;30.50;72.00;;;;;;5013319;28;20467;-63
2023/07/14 12:25:41;;;;;;;3.90;2.70;;;30.80;68.90;;;;;;5011805;28;20461;-63
2023/07/14 12:28:16;;;;;;;3.00;2.67;;;31.00;69.40;;;;;;5012873;28;20463;-64
2023/07/14 12:30:51;;;;;;;4.10;2.70;;;31.00;70.10;;;;;;5012742;28;20463;-63
2023/07/14 12:33:21;;;;;;;3.10;2.60;;;31.10;69.00;;;;;;5012610;28;20478;-63
2023/07/14 12:35:53;;;;;;;4.03;3.00;;;31.30;69.20;;;;;;5012550;28;20484;-63
2023/07/14 12:38:23;;;;;;;8.50;4.07;;;31.60;68.40;;;;;;5011251;28;20549;-63
2023/07/14 12:40:54;;;;;;;5.20;3.57;;;31.80;68.50;;;;;;5012947;28;20497;-64
2023/07/14 12:43:35;;;;;;;3.53;2.67;;;32.30;67.10;;;;;;5013021;28;20464;-63
2023/07/14 12:46:20;;;;;;;4.10;2.87;;;32.80;67.00;;;;;;5069012;28;20544;-63
2023/07/14 12:48:47;;;;;;;4.10;2.90;;;33.00;63.40;;;;;;5048880;28;20512;-63
2023/07/14 12:51:17;;;;;;;3.90;2.93;;;32.90;63.20;;;;;;5048619;28;20457;-63
2023/07/14 12:53:50;;;;;;;2.90;2.30;;;32.60;63.70;;;;;;5048566;28;20486;-63
2023/07/14 12:56:17;;;;;;;5.63;3.00;;;32.40;64.30;;;;;;5047519;28;20508;-63
2023/07/14 12:58:46;;;;;;;3.27;2.53;;;32.50;65.30;;;;;;5048866;28;20445;-63
2023/07/14 13:01:18;;;;;;;8.93;2.80;;;32.60;65.50;;;;;;5048572;28;20458;-63
2023/07/14 13:03:45;;;;;;;3.57;2.57;;;32.90;66.00;;;;;;5048427;28;20865;-63
2023/07/14 13:06:17;;;;;;;3.77;3.00;;;33.20;65.00;;;;;;5048347;28;20508;-64